sensor_id;sensor_type;location;lat;lon;timestamp;pressure;altitude;pressure_sealevel;temperature;humidity
4012;BME280;2020;48.682;9.024;2023-01-01T00:01:54;96745.50;;;10.94;78.14
4012;BME280;2020;48.682;9.024;2023-01-01T00:04:19;96754.13;;;10.95;77.98
4012;BME280;2020;48.682;9.024;2023-01-01T00:06:45;96752.13;;;10.89;78.42
4012;BME280;2020;48.682;9.024;2023-01-01T00:09:10;96762.69;;;10.87;78.64
4012;BME280;2020;48.682;9.024;2023-01-01T00:11:54;96765.00;;;10.90;77.93
4012;BME280;2020;48.682;9.024;2023-01-01T00:14:19;96767.75;;;10.89;78.27
4012;BME280;2020;48.682;9.024;2023-01-01T00:16:44;96758.16;;;10.89;78.40
4012;BME280;2020;48.682;9.024;2023-01-01T00:19:10;96760.88;;;10.88;78.37
4012;BME280;2020;48.682;9.024;2023-01-01T00:21:35;96769.38;;;10.90;78.49
4012;BME280;2020;48.682;9.024;2023-01-01T00:24:01;96751.44;;;10.87;78.24
4012;BME280;2020;48.682;9.024;2023-01-01T00:26:26;96746.91;;;10.89;78.07
4012;BME280;2020;48.682;9.024;2023-01-01T00:28:51;96752.72;;;10.82;78.36
4012;BME280;2020;48.682;9.024;2023-01-01T00:31:19;96746.84;;;10.80;78.77
4012;BME280;2020;48.682;9.024;2023-01-01T00:33:48;96751.06;;;10.81;78.50
4012;BME280;2020;48.682;9.024;2023-01-01T00:36:15;96744.59;;;10.86;78.04
4012;BME280;2020;48.682;9.024;2023-01-01T00:38:41;96739.47;;;10.94;77.73
4012;BME280;2020;48.682;9.024;2023-01-01T00:41:07;96738.50;;;10.95;77.56
4012;BME280;2020;48.682;9.024;2023-01-01T00:43:33;96740.13;;;10.96;77.73
4012;BME280;2020;48.682;9.024;2023-01-01T00:45:58;96741.09;;;10.95;77.80
4012;BME280;2020;48.682;9.024;2023-01-01T00:48:24;96738.19;;;10.98;77.47
4012;BME280;2020;48.682;9.024;2023-01-01T00:50:50;96733.94;;;10.97;77.48
4012;BME280;2020;48.682;9.024;2023-01-01T00:53:16;96733.16;;;10.96;77.30
4012;BME280;2020;48.682;9.024;2023-01-01T00:55:42;96736.72;;;10.95;77.21
4012;BME280;2020;48.682;9.024;2023-01-01T00:58:08;96733.94;;;10.97;77.29
4012;BME280;2020;48.682;9.024;2023-01-01T01:00:34;96735.88;;;10.95;77.70
4012;BME280;2020;48.682;9.024;2023-01-01T01:02:59;96729.03;;;10.94;77.71
4012;BME280;2020;48.682;9.024;2023-01-01T01:05:25;96733.59;;;10.92;77.74
4012;BME280;2020;48.682;9.024;2023-01-01T01:07:50;96725.09;;;10.90;77.66
4012;BME280;2020;48.682;9.024;2023-01-01T01:10:16;96727.41;;;10.93;77.52
4012;BME280;2020;48.682;9.024;2023-01-01T01:12:41;96729.03;;;10.94;77.38
4012;BME280;2020;48.682;9.024;2023-01-01T01:15:08;96726.13;;;10.97;77.12
4012;BME280;2020;48.682;9.024;2023-01-01T01:17:35;96727.72;;;10.90;77.38
4012;BME280;2020;48.682;9.024;2023-01-01T01:20:00;96721.16;;;10.86;77.74
4012;BME280;2020;48.682;9.024;2023-01-01T01:22:26;96733.59;;;10.92;77.10
4012;BME280;2020;48.682;9.024;2023-01-01T01:24:51;96729.72;;;10.96;77.02
4012;BME280;2020;48.682;9.024;2023-01-01T01:27:16;96731.28;;;10.89;77.18
4012;BME280;2020;48.682;9.024;2023-01-01T01:29:42;96729.66;;;10.88;77.29
4012;BME280;2020;48.682;9.024;2023-01-01T01:32:08;96731.59;;;10.86;77.30
4012;BME280;2020;48.682;9.024;2023-01-01T01:34:34;96740.66;;;10.81;77.58
4012;BME280;2020;48.682;9.024;2023-01-01T01:36:59;96735.47;;;10.81;77.53
4012;BME280;2020;48.682;9.024;2023-01-01T01:39:25;96730.84;;;10.75;77.94
4012;BME280;2020;48.682;9.024;2023-01-01T01:41:50;96743.25;;;10.81;77.41
4012;BME280;2020;48.682;9.024;2023-01-01T01:47:41;96745.56;;;10.85;77.09
4012;BME280;2020;48.682;9.024;2023-01-01T01:50:22;96742.91;;;10.94;76.47
4012;BME280;2020;48.682;9.024;2023-01-01T01:52:59;96742.13;;;11.02;76.00
4012;BME280;2020;48.682;9.024;2023-01-01T01:55:28;96740.50;;;11.01;76.22
4012;BME280;2020;48.682;9.024;2023-01-01T01:57:55;96745.44;;;11.12;75.33
4012;BME280;2020;48.682;9.024;2023-01-01T02:00:20;96741.50;;;11.08;75.32
4012;BME280;2020;48.682;9.024;2023-01-01T02:02:53;96741.50;;;11.08;75.42
4012;BME280;2020;48.682;9.024;2023-01-01T02:05:20;96745.09;;;11.07;75.58
4012;BME280;2020;48.682;9.024;2023-01-01T02:07:47;96741.81;;;11.05;75.29
4012;BME280;2020;48.682;9.024;2023-01-01T02:10:13;96744.47;;;11.14;74.46
4012;BME280;2020;48.682;9.024;2023-01-01T02:12:38;96747.41;;;11.10;75.16
4012;BME280;2020;48.682;9.024;2023-01-01T02:15:05;96747.44;;;11.19;74.28
4012;BME280;2020;48.682;9.024;2023-01-01T02:17:34;96754.28;;;11.20;74.55
4012;BME280;2020;48.682;9.024;2023-01-01T02:20:20;96750.00;;;11.10;74.90
4012;BME280;2020;48.682;9.024;2023-01-01T02:23:19;96757.16;;;11.08;74.83
4012;BME280;2020;48.682;9.024;2023-01-01T02:26:23;96754.72;;;11.07;74.90
4012;BME280;2020;48.682;9.024;2023-01-01T02:29:14;96753.88;;;11.06;74.76
4012;BME280;2020;48.682;9.024;2023-01-01T02:31:46;96747.88;;;11.06;74.57
4012;BME280;2020;48.682;9.024;2023-01-01T02:34:14;96741.50;;;11.08;74.29
4012;BME280;2020;48.682;9.024;2023-01-01T02:36:47;96724.25;;;11.07;74.63
4012;BME280;2020;48.682;9.024;2023-01-01T02:39:15;96728.50;;;11.08;74.16
4012;BME280;2020;48.682;9.024;2023-01-01T02:41:46;96737.88;;;11.19;73.49
4012;BME280;2020;48.682;9.024;2023-01-01T02:44:12;96724.75;;;11.29;73.01
4012;BME280;2020;48.682;9.024;2023-01-01T02:46:38;96730.31;;;11.34;72.72
4012;BME280;2020;48.682;9.024;2023-01-01T02:49:03;96739.72;;;11.27;73.00
4012;BME280;2020;48.682;9.024;2023-01-01T02:56:46;96751.31;;;11.15;73.57
4012;BME280;2020;48.682;9.024;2023-01-01T03:02:08;96762.19;;;11.28;73.14
4012;BME280;2020;48.682;9.024;2023-01-01T03:04:45;96755.44;;;11.17;73.42
4012;BME280;2020;48.682;9.024;2023-01-01T03:07:35;96751.56;;;11.21;73.24
4012;BME280;2020;48.682;9.024;2023-01-01T03:10:10;96749.16;;;11.28;72.78
4012;BME280;2020;48.682;9.024;2023-01-01T03:12:46;96761.75;;;11.15;73.49
4012;BME280;2020;48.682;9.024;2023-01-01T03:15:35;96752.00;;;11.17;73.21
4012;BME280;2020;48.682;9.024;2023-01-01T03:18:15;96752.97;;;11.16;73.38
4012;BME280;2020;48.682;9.024;2023-01-01T03:20:44;96759.44;;;11.11;73.86
4012;BME280;2020;48.682;9.024;2023-01-01T03:23:20;96756.53;;;11.15;73.64
4012;BME280;2020;48.682;9.024;2023-01-01T03:25:49;96762.34;;;11.08;74.29
4012;BME280;2020;48.682;9.024;2023-01-01T03:28:19;96765.63;;;11.10;74.20
4012;BME280;2020;48.682;9.024;2023-01-01T03:30:49;96771.88;;;11.18;73.57
4012;BME280;2020;48.682;9.024;2023-01-01T03:33:23;96770.97;;;11.27;73.22
4012;BME280;2020;48.682;9.024;2023-01-01T03:38:34;96769.03;;;11.29;73.20
4012;BME280;2020;48.682;9.024;2023-01-01T03:41:10;96769.31;;;11.26;73.10
4012;BME280;2020;48.682;9.024;2023-01-01T03:43:51;96785.38;;;11.13;74.01
4012;BME280;2020;48.682;9.024;2023-01-01T03:46:22;96785.50;;;11.11;73.84
4012;BME280;2020;48.682;9.024;2023-01-01T03:48:50;96785.19;;;11.15;73.47
4012;BME280;2020;48.682;9.024;2023-01-01T03:57:19;96801.66;;;10.97;74.56
4012;BME280;2020;48.682;9.024;2023-01-01T04:00:06;96801.53;;;10.99;74.26
4012;BME280;2020;48.682;9.024;2023-01-01T04:05:19;96791.53;;;10.94;74.67
4012;BME280;2020;48.682;9.024;2023-01-01T04:07:45;96792.38;;;10.94;74.66
4012;BME280;2020;48.682;9.024;2023-01-01T04:10:12;96783.34;;;10.89;74.61
4012;BME280;2020;48.682;9.024;2023-01-01T04:12:48;96780.38;;;10.83;75.07
4012;BME280;2020;48.682;9.024;2023-01-01T04:15:18;96785.59;;;10.83;75.19
4012;BME280;2020;48.682;9.024;2023-01-01T04:17:44;96778.44;;;10.86;74.83
4012;BME280;2020;48.682;9.024;2023-01-01T04:20:11;96776.53;;;10.88;74.96
4012;BME280;2020;48.682;9.024;2023-01-01T04:22:36;96778.44;;;10.86;74.60
4012;BME280;2020;48.682;9.024;2023-01-01T04:25:02;96775.94;;;10.76;75.78
4012;BME280;2020;48.682;9.024;2023-01-01T04:27:28;96780.69;;;10.80;75.01
4012;BME280;2020;48.682;9.024;2023-01-01T04:29:53;96777.41;;;10.78;75.19
4012;BME280;2020;48.682;9.024;2023-01-01T04:32:18;96776.53;;;10.70;75.81
4012;BME280;2020;48.682;9.024;2023-01-01T04:34:44;96775.28;;;10.74;75.26
4012;BME280;2020;48.682;9.024;2023-01-01T04:37:09;96777.81;;;10.65;76.17
4012;BME280;2020;48.682;9.024;2023-01-01T04:39:34;96779.19;;;10.60;76.28
4012;BME280;2020;48.682;9.024;2023-01-01T04:41:59;96789.91;;;10.57;76.55
4012;BME280;2020;48.682;9.024;2023-01-01T04:44:25;96784.41;;;10.60;76.04
4012;BME280;2020;48.682;9.024;2023-01-01T04:46:50;96776.22;;;10.55;76.32
4012;BME280;2020;48.682;9.024;2023-01-01T04:49:15;96787.13;;;10.58;76.03
4012;BME280;2020;48.682;9.024;2023-01-01T04:51:40;96786.03;;;10.61;76.05
4012;BME280;2020;48.682;9.024;2023-01-01T04:54:06;96787.66;;;10.62;75.92
4012;BME280;2020;48.682;9.024;2023-01-01T04:56:31;96782.09;;;10.57;75.88
4012;BME280;2020;48.682;9.024;2023-01-01T04:58:56;96786.63;;;10.55;75.79
4012;BME280;2020;48.682;9.024;2023-01-01T05:01:24;96786.34;;;10.58;75.92
4012;BME280;2020;48.682;9.024;2023-01-01T05:03:50;96791.84;;;10.55;76.19
4012;BME280;2020;48.682;9.024;2023-01-01T05:06:16;96799.19;;;10.59;75.68
4012;BME280;2020;48.682;9.024;2023-01-01T05:08:44;96807.53;;;10.63;75.32
4012;BME280;2020;48.682;9.024;2023-01-01T05:11:12;96810.69;;;10.66;75.46
4012;BME280;2020;48.682;9.024;2023-01-01T05:13:40;96810.13;;;10.63;75.71
4012;BME280;2020;48.682;9.024;2023-01-01T05:16:08;96803.28;;;10.62;75.93
4012;BME280;2020;48.682;9.024;2023-01-01T05:18:34;96813.03;;;10.60;75.70
4012;BME280;2020;48.682;9.024;2023-01-01T05:21:02;96809.84;;;10.66;75.37
4012;BME280;2020;48.682;9.024;2023-01-01T05:23:28;96819.97;;;10.69;74.88
4012;BME280;2020;48.682;9.024;2023-01-01T05:25:53;96815.34;;;10.63;75.05
4012;BME280;2020;48.682;9.024;2023-01-01T05:28:19;96820.53;;;10.63;75.31
4012;BME280;2020;48.682;9.024;2023-01-01T05:30:44;96826.34;;;10.57;75.63
4012;BME280;2020;48.682;9.024;2023-01-01T05:33:09;96814.00;;;10.59;75.22
4012;BME280;2020;48.682;9.024;2023-01-01T05:35:35;96820.53;;;10.63;75.39
4012;BME280;2020;48.682;9.024;2023-01-01T05:38:00;96826.03;;;10.60;75.33
4012;BME280;2020;48.682;9.024;2023-01-01T05:40:25;96821.13;;;10.57;75.33
4012;BME280;2020;48.682;9.024;2023-01-01T05:42:50;96827.97;;;10.58;74.63
4012;BME280;2020;48.682;9.024;2023-01-01T05:45:16;96826.94;;;10.50;75.40
4012;BME280;2020;48.682;9.024;2023-01-01T05:47:41;96827.22;;;10.47;75.28
4012;BME280;2020;48.682;9.024;2023-01-01T05:50:07;96832.72;;;10.44;76.01
4012;BME280;2020;48.682;9.024;2023-01-01T05:52:32;96832.03;;;10.42;75.44
4012;BME280;2020;48.682;9.024;2023-01-01T05:54:57;96833.25;;;10.38;75.81
4012;BME280;2020;48.682;9.024;2023-01-01T05:57:25;96837.78;;;10.36;75.95
4012;BME280;2020;48.682;9.024;2023-01-01T05:59:51;96838.75;;;10.35;76.10
4012;BME280;2020;48.682;9.024;2023-01-01T06:02:16;96831.91;;;10.34;76.26
4012;BME280;2020;48.682;9.024;2023-01-01T06:04:42;96837.41;;;10.31;76.27
4012;BME280;2020;48.682;9.024;2023-01-01T06:07:07;96831.81;;;10.26;76.71
4012;BME280;2020;48.682;9.024;2023-01-01T06:09:32;96841.25;;;10.27;76.56
4012;BME280;2020;48.682;9.024;2023-01-01T06:11:57;96836.94;;;10.17;77.39
4012;BME280;2020;48.682;9.024;2023-01-01T06:14:23;96836.94;;;10.17;76.76
4012;BME280;2020;48.682;9.024;2023-01-01T06:16:48;96850.59;;;10.19;76.67
4012;BME280;2020;48.682;9.024;2023-01-01T06:19:13;96848.00;;;10.19;76.73
4012;BME280;2020;48.682;9.024;2023-01-01T06:21:38;96841.28;;;10.17;76.84
4012;BME280;2020;48.682;9.024;2023-01-01T06:24:04;96840.78;;;10.13;77.45
4012;BME280;2020;48.682;9.024;2023-01-01T06:26:31;96848.19;;;10.08;77.35
4012;BME280;2020;48.682;9.024;2023-01-01T06:28:58;96848.03;;;10.09;77.18
4012;BME280;2020;48.682;9.024;2023-01-01T06:31:25;96846.25;;;10.10;76.75
4012;BME280;2020;48.682;9.024;2023-01-01T06:33:50;96842.69;;;10.11;77.16
4012;BME280;2020;48.682;9.024;2023-01-01T06:36:18;96835.84;;;10.10;76.96
4012;BME280;2020;48.682;9.024;2023-01-01T06:38:45;96845.59;;;10.08;77.01
4012;BME280;2020;48.682;9.024;2023-01-01T06:41:13;96852.81;;;10.14;76.92
4012;BME280;2020;48.682;9.024;2023-01-01T06:43:39;96848.47;;;10.05;77.27
4012;BME280;2020;48.682;9.024;2023-01-01T06:46:19;96848.47;;;10.05;76.89
4012;BME280;2020;48.682;9.024;2023-01-01T06:48:46;96851.47;;;10.10;76.84
4012;BME280;2020;48.682;9.024;2023-01-01T06:51:32;96852.81;;;10.14;76.44
4012;BME280;2020;48.682;9.024;2023-01-01T06:54:00;96851.47;;;10.10;76.63
4012;BME280;2020;48.682;9.024;2023-01-01T06:56:26;96848.19;;;10.08;76.77
4012;BME280;2020;48.682;9.024;2023-01-01T06:58:51;96858.88;;;10.05;76.66
4012;BME280;2020;48.682;9.024;2023-01-01T07:01:22;96853.38;;;10.08;76.12
4012;BME280;2020;48.682;9.024;2023-01-01T07:03:55;96849.44;;;10.04;76.30
4012;BME280;2020;48.682;9.024;2023-01-01T07:06:22;96852.84;;;10.04;76.55
4012;BME280;2020;48.682;9.024;2023-01-01T07:08:47;96853.13;;;10.01;76.45
4012;BME280;2020;48.682;9.024;2023-01-01T07:11:12;96857.81;;;9.98;77.08
4012;BME280;2020;48.682;9.024;2023-01-01T07:13:38;96867.91;;;10.01;76.76
4012;BME280;2020;48.682;9.024;2023-01-01T07:16:03;96867.25;;;9.99;76.83
4012;BME280;2020;48.682;9.024;2023-01-01T07:18:29;96865.19;;;9.92;77.03
4012;BME280;2020;48.682;9.024;2023-01-01T07:20:56;96872.44;;;9.99;76.83
4012;BME280;2020;48.682;9.024;2023-01-01T07:23:23;96866.56;;;9.97;76.85
4012;BME280;2020;48.682;9.024;2023-01-01T07:25:49;96858.34;;;9.91;77.22
4012;BME280;2020;48.682;9.024;2023-01-01T07:28:15;96863.00;;;9.98;76.80
4012;BME280;2020;48.682;9.024;2023-01-01T07:30:40;96859.16;;;10.02;76.65
4012;BME280;2020;48.682;9.024;2023-01-01T07:33:10;96862.44;;;10.04;76.19
4012;BME280;2020;48.682;9.024;2023-01-01T07:35:35;96870.34;;;10.12;76.00
4012;BME280;2020;48.682;9.024;2023-01-01T07:38:00;96870.34;;;10.12;75.97
4012;BME280;2020;48.682;9.024;2023-01-01T07:40:26;96865.53;;;10.17;75.45
4012;BME280;2020;48.682;9.024;2023-01-01T07:42:51;96878.81;;;10.14;75.86
4012;BME280;2020;48.682;9.024;2023-01-01T07:45:16;96877.13;;;10.23;75.09
4012;BME280;2020;48.682;9.024;2023-01-01T07:47:41;96886.16;;;10.29;75.32
4012;BME280;2020;48.682;9.024;2023-01-01T07:50:14;96884.91;;;10.33;74.75
4012;BME280;2020;48.682;9.024;2023-01-01T07:52:40;96892.72;;;10.33;74.83
4012;BME280;2020;48.682;9.024;2023-01-01T07:55:06;96899.56;;;10.34;74.74
4012;BME280;2020;48.682;9.024;2023-01-01T07:57:32;96906.13;;;10.38;74.73
4012;BME280;2020;48.682;9.024;2023-01-01T07:59:57;96912.41;;;10.45;74.36
4012;BME280;2020;48.682;9.024;2023-01-01T08:02:22;96908.28;;;10.52;73.62
4012;BME280;2020;48.682;9.024;2023-01-01T08:04:47;96916.59;;;10.56;73.43
4012;BME280;2020;48.682;9.024;2023-01-01T08:07:13;96923.31;;;10.59;73.63
4012;BME280;2020;48.682;9.024;2023-01-01T08:09:38;96921.38;;;10.61;73.67
4012;BME280;2020;48.682;9.024;2023-01-01T08:12:03;96926.03;;;10.57;73.82
4012;BME280;2020;48.682;9.024;2023-01-01T08:14:29;96930.16;;;10.60;73.48
4012;BME280;2020;48.682;9.024;2023-01-01T08:16:54;96928.81;;;10.56;73.90
4012;BME280;2020;48.682;9.024;2023-01-01T08:19:19;96930.44;;;10.57;74.26
4012;BME280;2020;48.682;9.024;2023-01-01T08:21:44;96928.41;;;10.50;73.97
4012;BME280;2020;48.682;9.024;2023-01-01T08:24:10;96934.59;;;10.49;74.60
4012;BME280;2020;48.682;9.024;2023-01-01T08:26:35;96938.25;;;10.57;73.74
4012;BME280;2020;48.682;9.024;2023-01-01T08:29:06;96935.94;;;10.53;74.40
4012;BME280;2020;48.682;9.024;2023-01-01T08:31:32;96939.91;;;10.58;74.51
4012;BME280;2020;48.682;9.024;2023-01-01T08:33:57;96947.41;;;10.61;74.21
4012;BME280;2020;48.682;9.024;2023-01-01T08:36:23;96944.91;;;10.69;74.01
4012;BME280;2020;48.682;9.024;2023-01-01T08:38:48;96940.56;;;10.88;72.64
4012;BME280;2020;48.682;9.024;2023-01-01T08:41:14;96941.13;;;11.09;71.92
4012;BME280;2020;48.682;9.024;2023-01-01T08:43:39;96950.97;;;11.34;72.23
4012;BME280;2020;48.682;9.024;2023-01-01T08:46:04;96950.25;;;11.41;72.23
4012;BME280;2020;48.682;9.024;2023-01-01T08:48:30;96952.50;;;11.36;71.39
4012;BME280;2020;48.682;9.024;2023-01-01T08:50:56;96953.00;;;11.58;70.16
4012;BME280;2020;48.682;9.024;2023-01-01T08:53:24;96949.41;;;11.77;70.01
4012;BME280;2020;48.682;9.024;2023-01-01T08:56:01;96949.47;;;12.04;68.87
4012;BME280;2020;48.682;9.024;2023-01-01T08:58:28;96953.31;;;11.99;68.24
4012;BME280;2020;48.682;9.024;2023-01-01T09:00:54;96948.09;;;11.99;68.52
4012;BME280;2020;48.682;9.024;2023-01-01T09:03:20;96951.81;;;12.15;67.72
4012;BME280;2020;48.682;9.024;2023-01-01T09:05:45;96954.78;;;12.20;67.73
4012;BME280;2020;48.682;9.024;2023-01-01T09:08:14;96947.84;;;12.29;67.93
4012;BME280;2020;48.682;9.024;2023-01-01T09:10:40;96940.25;;;12.44;66.32
4012;BME280;2020;48.682;9.024;2023-01-01T09:13:08;96943.19;;;12.49;66.16
4012;BME280;2020;48.682;9.024;2023-01-01T09:15:34;96944.88;;;12.58;66.09
4012;BME280;2020;48.682;9.024;2023-01-01T09:17:59;96948.78;;;12.54;66.42
4012;BME280;2020;48.682;9.024;2023-01-01T09:20:24;96946.16;;;12.54;65.84
4012;BME280;2020;48.682;9.024;2023-01-01T09:22:50;96941.47;;;12.58;66.58
4012;BME280;2020;48.682;9.024;2023-01-01T09:25:15;96940.22;;;12.70;64.91
4012;BME280;2020;48.682;9.024;2023-01-01T09:27:40;96947.94;;;12.80;65.08
4012;BME280;2020;48.682;9.024;2023-01-01T09:30:06;96949.28;;;12.93;65.75
4012;BME280;2020;48.682;9.024;2023-01-01T09:32:32;96945.06;;;13.00;65.16
4012;BME280;2020;48.682;9.024;2023-01-01T09:34:57;96948.59;;;12.82;66.48
4012;BME280;2020;48.682;9.024;2023-01-01T09:37:24;96946.97;;;12.81;65.99
4012;BME280;2020;48.682;9.024;2023-01-01T09:39:49;96949.91;;;12.86;65.49
4012;BME280;2020;48.682;9.024;2023-01-01T09:42:39;96956.78;;;12.87;65.94
4012;BME280;2020;48.682;9.024;2023-01-01T09:47:53;96946.31;;;12.87;66.34
4012;BME280;2020;48.682;9.024;2023-01-01T09:50:26;96952.91;;;13.00;65.74
4012;BME280;2020;48.682;9.024;2023-01-01T09:53:12;96954.72;;;13.24;65.34
4012;BME280;2020;48.682;9.024;2023-01-01T09:55:52;96957.38;;;13.33;65.40
4012;BME280;2020;48.682;9.024;2023-01-01T09:58:23;96955.91;;;13.30;64.32
4012;BME280;2020;48.682;9.024;2023-01-01T10:00:53;96952.00;;;13.34;64.09
4012;BME280;2020;48.682;9.024;2023-01-01T10:06:32;96963.44;;;13.41;65.30
4012;BME280;2020;48.682;9.024;2023-01-01T10:12:11;96959.25;;;13.65;64.63
4012;BME280;2020;48.682;9.024;2023-01-01T10:14:45;96959.88;;;13.59;64.67
4012;BME280;2020;48.682;9.024;2023-01-01T10:17:26;96957.28;;;13.67;65.51
4012;BME280;2020;48.682;9.024;2023-01-01T10:19:58;96941.91;;;13.72;62.57
4012;BME280;2020;48.682;9.024;2023-01-01T10:22:30;96958.44;;;13.65;64.03
4012;BME280;2020;48.682;9.024;2023-01-01T10:25:00;96947.97;;;13.81;63.04
4012;BME280;2020;48.682;9.024;2023-01-01T10:27:38;96954.34;;;13.62;62.71
4012;BME280;2020;48.682;9.024;2023-01-01T10:30:13;96954.50;;;13.52;61.91
4012;BME280;2020;48.682;9.024;2023-01-01T10:32:39;96954.84;;;13.66;63.53
4012;BME280;2020;48.682;9.024;2023-01-01T10:35:12;96963.66;;;13.48;62.57
4012;BME280;2020;48.682;9.024;2023-01-01T10:37:38;96956.63;;;13.49;62.88
4012;BME280;2020;48.682;9.024;2023-01-01T10:40:12;96961.22;;;13.96;61.63
4012;BME280;2020;48.682;9.024;2023-01-01T10:42:38;96959.25;;;14.07;62.07
4012;BME280;2020;48.682;9.024;2023-01-01T10:45:04;96959.25;;;13.98;61.30
4012;BME280;2020;48.682;9.024;2023-01-01T10:47:30;96952.88;;;13.93;60.81
4012;BME280;2020;48.682;9.024;2023-01-01T10:50:00;96938.66;;;14.03;61.75
4012;BME280;2020;48.682;9.024;2023-01-01T10:52:36;96944.00;;;14.18;60.80
4012;BME280;2020;48.682;9.024;2023-01-01T10:55:03;96935.97;;;14.37;61.00
4012;BME280;2020;48.682;9.024;2023-01-01T10:57:33;96928.66;;;14.63;61.82
4012;BME280;2020;48.682;9.024;2023-01-01T11:02:34;96930.56;;;14.86;57.08
4012;BME280;2020;48.682;9.024;2023-01-01T11:05:19;96933.06;;;15.11;58.96
4012;BME280;2020;48.682;9.024;2023-01-01T11:07:45;96935.63;;;15.19;56.74
4012;BME280;2020;48.682;9.024;2023-01-01T11:10:17;96932.88;;;15.44;56.86
4012;BME280;2020;48.682;9.024;2023-01-01T11:12:42;96933.31;;;15.25;55.96
4012;BME280;2020;48.682;9.024;2023-01-01T11:15:20;96927.28;;;15.47;56.86
4012;BME280;2020;48.682;9.024;2023-01-01T11:17:46;96932.88;;;15.44;56.44
4012;BME280;2020;48.682;9.024;2023-01-01T11:20:17;96927.00;;;15.11;57.10
4012;BME280;2020;48.682;9.024;2023-01-01T11:22:46;96924.94;;;15.53;57.13
4012;BME280;2020;48.682;9.024;2023-01-01T11:25:25;96933.44;;;15.55;55.43
4012;BME280;2020;48.682;9.024;2023-01-01T11:27:51;96920.75;;;15.43;56.24
4012;BME280;2020;48.682;9.024;2023-01-01T11:30:27;96923.88;;;15.62;54.73
4012;BME280;2020;48.682;9.024;2023-01-01T11:32:59;96910.56;;;15.87;54.83
4012;BME280;2020;48.682;9.024;2023-01-01T11:35:27;96906.66;;;15.83;54.86
4012;BME280;2020;48.682;9.024;2023-01-01T11:37:54;96904.25;;;15.96;53.45
4012;BME280;2020;48.682;9.024;2023-01-01T11:40:29;96886.88;;;15.95;54.85
4012;BME280;2020;48.682;9.024;2023-01-01T11:42:59;96870.72;;;15.45;54.50
4012;BME280;2020;48.682;9.024;2023-01-01T11:45:33;96879.84;;;15.72;55.58
4012;BME280;2020;48.682;9.024;2023-01-01T11:48:05;96867.16;;;15.99;54.27
4012;BME280;2020;48.682;9.024;2023-01-01T11:50:38;96861.19;;;16.05;53.88
4012;BME280;2020;48.682;9.024;2023-01-01T11:58:38;96856.91;;;16.34;51.77
4012;BME280;2020;48.682;9.024;2023-01-01T12:01:18;96855.91;;;16.35;52.52
4012;BME280;2020;48.682;9.024;2023-01-01T12:03:57;96856.28;;;16.62;54.10
4012;BME280;2020;48.682;9.024;2023-01-01T12:06:30;96849.47;;;16.53;51.98
4012;BME280;2020;48.682;9.024;2023-01-01T12:11:59;96851.97;;;16.76;50.91
4012;BME280;2020;48.682;9.024;2023-01-01T12:15:04;96850.91;;;16.71;50.95
4012;BME280;2020;48.682;9.024;2023-01-01T12:17:35;96844.66;;;16.72;52.43
4012;BME280;2020;48.682;9.024;2023-01-01T12:22:49;96849.41;;;16.83;51.34
4012;BME280;2020;48.682;9.024;2023-01-01T12:25:17;96851.91;;;16.70;52.01
4012;BME280;2020;48.682;9.024;2023-01-01T12:36:38;96832.44;;;16.86;52.96
4012;BME280;2020;48.682;9.024;2023-01-01T12:41:52;96832.06;;;16.67;52.88
4012;BME280;2020;48.682;9.024;2023-01-01T12:44:44;96829.25;;;16.69;52.49
4012;BME280;2020;48.682;9.024;2023-01-01T12:55:57;96816.16;;;17.34;52.67
4012;BME280;2020;48.682;9.024;2023-01-01T12:58:29;96818.03;;;17.18;50.56
4012;BME280;2020;48.682;9.024;2023-01-01T13:00:59;96817.16;;;17.11;51.33
4012;BME280;2020;48.682;9.024;2023-01-01T13:03:33;96814.22;;;16.62;50.81
4012;BME280;2020;48.682;9.024;2023-01-01T13:06:01;96814.03;;;16.86;50.98
4012;BME280;2020;48.682;9.024;2023-01-01T13:08:27;96820.16;;;17.08;50.21
4012;BME280;2020;48.682;9.024;2023-01-01T13:10:55;96814.50;;;17.33;50.89
4012;BME280;2020;48.682;9.024;2023-01-01T13:13:22;96812.53;;;17.63;49.09
4012;BME280;2020;48.682;9.024;2023-01-01T13:15:54;96811.25;;;17.31;50.24
4012;BME280;2020;48.682;9.024;2023-01-01T13:18:38;96817.25;;;17.75;49.73
4012;BME280;2020;48.682;9.024;2023-01-01T13:21:20;96809.22;;;17.54;49.95
4012;BME280;2020;48.682;9.024;2023-01-01T13:23:47;96805.66;;;17.62;48.85
4012;BME280;2020;48.682;9.024;2023-01-01T13:28:41;96803.22;;;17.39;49.11
4012;BME280;2020;48.682;9.024;2023-01-01T13:31:06;96802.66;;;17.72;47.97
4012;BME280;2020;48.682;9.024;2023-01-01T13:33:31;96806.88;;;17.95;47.66
4012;BME280;2020;48.682;9.024;2023-01-01T13:49:33;96781.66;;;17.86;47.66
4012;BME280;2020;48.682;9.024;2023-01-01T13:52:31;96774.53;;;18.01;46.92
4012;BME280;2020;48.682;9.024;2023-01-01T14:03:52;96760.47;;;17.59;47.99
4012;BME280;2020;48.682;9.024;2023-01-01T14:06:36;96761.38;;;17.79;46.36
4012;BME280;2020;48.682;9.024;2023-01-01T14:09:12;96763.59;;;18.04;45.95
4012;BME280;2020;48.682;9.024;2023-01-01T14:11:38;96760.31;;;17.67;46.43
4012;BME280;2020;48.682;9.024;2023-01-01T14:16:51;96767.88;;;17.83;45.86
4012;BME280;2020;48.682;9.024;2023-01-01T14:19:16;96771.41;;;17.91;45.86
4012;BME280;2020;48.682;9.024;2023-01-01T14:21:43;96772.13;;;18.06;45.49
4012;BME280;2020;48.682;9.024;2023-01-01T14:24:13;96775.75;;;18.05;45.43
4012;BME280;2020;48.682;9.024;2023-01-01T14:26:40;96769.53;;;18.20;44.81
4012;BME280;2020;48.682;9.024;2023-01-01T14:29:08;96778.09;;;18.35;44.99
4012;BME280;2020;48.682;9.024;2023-01-01T14:31:39;96778.50;;;18.32;44.93
4012;BME280;2020;48.682;9.024;2023-01-01T14:34:18;96779.06;;;18.21;44.90
4012;BME280;2020;48.682;9.024;2023-01-01T14:36:55;96779.06;;;18.21;44.80
4012;BME280;2020;48.682;9.024;2023-01-01T14:39:25;96792.41;;;17.56;47.86
4012;BME280;2020;48.682;9.024;2023-01-01T14:41:52;96791.75;;;17.18;47.72
4012;BME280;2020;48.682;9.024;2023-01-01T14:44:22;96789.84;;;16.90;48.09
4012;BME280;2020;48.682;9.024;2023-01-01T14:46:51;96791.47;;;16.91;48.64
4012;BME280;2020;48.682;9.024;2023-01-01T14:49:28;96779.53;;;16.52;50.35
4012;BME280;2020;48.682;9.024;2023-01-01T14:52:00;96779.50;;;16.30;51.14
4012;BME280;2020;48.682;9.024;2023-01-01T14:54:31;96783.78;;;16.16;50.75
4012;BME280;2020;48.682;9.024;2023-01-01T14:56:57;96790.56;;;16.11;51.17
4012;BME280;2020;48.682;9.024;2023-01-01T14:59:28;96781.16;;;16.01;50.89
4012;BME280;2020;48.682;9.024;2023-01-01T15:04:23;96776.06;;;15.70;52.00
4012;BME280;2020;48.682;9.024;2023-01-01T15:06:56;96776.22;;;15.53;52.22
4012;BME280;2020;48.682;9.024;2023-01-01T15:09:22;96786.34;;;15.41;53.94